logo tempoitalia

Diretta Meteo Dalhart, Stati Uniti (USA)lunedì 31 agosto ore 00:53

Mappa
Sereno 26 °C Sereno 24 Ore: T.min 22 T.max 38
Ponente Sud/Sud-Ovest Km/h 22.2 Punto di rugiada: 10 °C Umidità: 36% Visibilità: 10 Km
Il sole sorge alle: 07:21 Il sole tramonta alle: 20:19
31 Agosto 2026 00:53 tempo osservato: Sereno Sereno 26 36 1017 vento: Nord S/SO 22.2
30 Agosto 2026 23:53 tempo osservato: Sereno Sereno 28 32 1016 vento: Nord S 27.8
30 Agosto 2026 22:53 tempo osservato: Sereno Sereno 29 28 1015 vento: Nord S 27.8
30 Agosto 2026 21:53 tempo osservato: Sereno Sereno 31 27 1015 vento: Nord S 29.6
30 Agosto 2026 20:53 tempo osservato: Sereno Sereno 33 24 1014 vento: Nord S 31.5
30 Agosto 2026 19:53 tempo osservato: Sereno Sereno 35 17 1013 vento: Nord S/SO 14.8
30 Agosto 2026 18:53 tempo osservato: Sereno Sereno 38 14 1013 vento: Nord S/SO 14.8
30 Agosto 2026 18:40 tempo osservato: Sereno Sereno 38 13 1013 vento: Nord S/SO 20.3
30 Agosto 2026 17:53 tempo osservato: Sereno Sereno 38 15 1013 vento: Nord S 18.5
30 Agosto 2026 16:53 tempo osservato: Poco Nuvoloso Poco Nuvoloso 37 17 1014 vento: Nord SO 18.5
30 Agosto 2026 15:53 tempo osservato: Poco Nuvoloso Poco Nuvoloso 37 17 1015 vento: Nord SO 24
30 Agosto 2026 14:53 tempo osservato: Sereno Sereno 38 17 1015 vento: Nord O 9.3
30 Agosto 2026 13:53 tempo osservato: Sereno Sereno 38 17 1016 vento: Nord O 24
30 Agosto 2026 12:53 tempo osservato: Sereno Sereno 37 19 1017 vento: Nord SO 20.3
30 Agosto 2026 11:53 tempo osservato: Sereno Sereno 35 23 1017 vento: Nord O/SO 24
30 Agosto 2026 10:53 tempo osservato: Sereno Sereno 32 29 1017 vento: Nord O/SO 22.2
30 Agosto 2026 09:53 tempo osservato: Sereno Sereno 29 35 1017 vento: Nord S/SO 27.8
30 Agosto 2026 08:53 tempo osservato: Sereno Sereno 26 41 1017 vento: Nord S/SO 29.6
30 Agosto 2026 07:53 tempo osservato: Sereno Sereno 23 46 1017 vento: Nord S 20.3
30 Agosto 2026 06:53 tempo osservato: Sereno Sereno 23 46 1017 vento: Nord S/SO 22.2
30 Agosto 2026 05:53 tempo osservato: Sereno Sereno 22 53 1017 vento: Nord S/SO 16.7
30 Agosto 2026 04:53 tempo osservato: Sereno Sereno 23 49 1017 vento: Nord S/SO 16.7
30 Agosto 2026 03:53 tempo osservato: Sereno Sereno 24 43 1016 vento: Nord S/SO 16.7
30 Agosto 2026 02:53 tempo osservato: Sereno Sereno 26 39 1017 vento: Nord S/SO 20.3
30 Agosto 2026 01:53 tempo osservato: Sereno Sereno 27 36 1017 vento: Nord S/SO 24